createdAt,value
2023-04-27T00:01:14.246Z,15.30
2023-04-27T00:03:46.135Z,14.90
2023-04-27T00:06:17.472Z,15.60
2023-04-27T00:08:48.382Z,15.80
2023-04-27T00:11:19.365Z,17.00
2023-04-27T00:13:55.287Z,16.70
2023-04-27T00:16:26.384Z,16.30
2023-04-27T00:18:57.445Z,16.60
2023-04-27T00:21:28.355Z,17.30
2023-04-27T00:23:59.236Z,16.70
2023-04-27T00:26:30.090Z,16.20
2023-04-27T00:29:03.792Z,17.00
2023-04-27T00:31:34.747Z,16.70
2023-04-27T00:34:05.680Z,17.80
2023-04-27T00:36:37.396Z,16.60
2023-04-27T00:39:09.159Z,17.70
2023-04-27T00:41:41.220Z,17.50
2023-04-27T00:44:14.629Z,18.00
2023-04-27T00:46:45.630Z,18.50
2023-04-27T00:49:16.557Z,18.20
2023-04-27T00:51:47.924Z,17.30
2023-04-27T00:54:21.666Z,17.90
2023-04-27T00:56:53.165Z,18.20
2023-04-27T00:59:26.812Z,18.00
2023-04-27T01:01:58.804Z,18.40
2023-04-27T01:04:30.404Z,18.80
2023-04-27T01:07:03.261Z,18.60
2023-04-27T01:09:34.248Z,19.00
2023-04-27T01:12:05.242Z,19.90
2023-04-27T01:14:39.545Z,19.30
2023-04-27T01:17:11.053Z,20.00
2023-04-27T01:19:45.234Z,19.70
2023-04-27T01:22:22.343Z,20.00
2023-04-27T01:24:55.975Z,20.00
2023-04-27T01:27:27.069Z,19.70
2023-04-27T01:29:58.115Z,20.40
2023-04-27T01:32:29.069Z,19.70
2023-04-27T01:35:00.163Z,20.40
2023-04-27T01:37:31.191Z,20.30
2023-04-27T01:40:05.896Z,20.30
2023-04-27T01:42:36.938Z,20.30
2023-04-27T01:45:09.261Z,20.80
2023-04-27T01:47:40.277Z,20.30
2023-04-27T01:50:12.081Z,20.30
2023-04-27T01:52:42.982Z,20.50
2023-04-27T01:55:16.603Z,20.30
2023-04-27T01:57:47.503Z,20.20
2023-04-27T02:00:19.011Z,20.30
2023-04-27T02:03:06.581Z,20.20
2023-04-27T02:05:37.570Z,20.40
2023-04-27T02:08:08.980Z,21.30
2023-04-27T02:10:42.757Z,20.70
2023-04-27T02:13:13.599Z,22.10
2023-04-27T02:15:44.628Z,20.60
2023-04-27T02:18:15.939Z,20.30
2023-04-27T02:20:47.038Z,20.70
2023-04-27T02:23:17.978Z,20.60
2023-04-27T02:25:51.520Z,21.00
2023-04-27T02:28:22.510Z,21.50
2023-04-27T02:30:53.813Z,21.50
2023-04-27T02:33:25.336Z,21.00
2023-04-27T02:35:56.184Z,21.60
2023-04-27T02:38:27.044Z,21.90
2023-04-27T02:41:00.569Z,21.40
2023-04-27T02:43:33.642Z,21.50
2023-04-27T02:46:05.979Z,21.40
2023-04-27T02:48:36.853Z,22.50
2023-04-27T02:51:08.418Z,22.50
2023-04-27T02:53:39.405Z,21.70
2023-04-27T02:56:13.070Z,22.20
2023-04-27T02:58:44.981Z,22.60
2023-04-27T03:01:16.000Z,22.30
2023-04-27T03:03:49.359Z,23.40
2023-04-27T03:06:20.492Z,23.30
2023-04-27T03:08:51.456Z,23.60
2023-04-27T03:11:29.164Z,23.30
2023-04-27T03:14:00.153Z,24.40
2023-04-27T03:16:31.062Z,23.20
2023-04-27T03:19:02.282Z,24.20
2023-04-27T03:21:33.427Z,23.70
2023-04-27T03:24:04.391Z,24.20
2023-04-27T03:26:38.092Z,24.30
2023-04-27T03:29:09.017Z,24.80
2023-04-27T03:31:39.970Z,24.10
2023-04-27T03:34:10.929Z,24.40
2023-04-27T03:36:42.170Z,24.80
2023-04-27T03:39:13.155Z,24.50
2023-04-27T03:41:49.827Z,24.70
2023-04-27T03:44:20.710Z,26.00
2023-04-27T03:46:51.625Z,25.70
2023-04-27T03:49:23.129Z,26.50
2023-04-27T03:51:54.018Z,26.00
2023-04-27T03:54:25.278Z,25.60
2023-04-27T03:56:59.134Z,25.50
2023-04-27T03:59:32.090Z,25.70
2023-04-27T04:02:04.086Z,26.10
2023-04-27T04:04:35.203Z,27.00
2023-04-27T04:07:06.335Z,26.00
2023-04-27T04:09:37.330Z,26.60
2023-04-27T04:12:11.102Z,27.70
2023-04-27T04:14:42.993Z,28.70
2023-04-27T04:17:14.014Z,28.70
2023-04-27T04:19:45.050Z,29.20
2023-04-27T04:22:16.118Z,30.20
2023-04-27T04:24:49.241Z,29.40
2023-04-27T04:27:22.889Z,29.90
2023-04-27T04:29:53.836Z,29.50
2023-04-27T04:32:24.724Z,28.60
2023-04-27T04:34:55.685Z,28.70
2023-04-27T04:37:26.679Z,28.70
2023-04-27T04:39:57.535Z,29.20
2023-04-27T04:42:31.440Z,29.10
2023-04-27T04:45:02.358Z,29.50
2023-04-27T04:47:34.649Z,29.50
2023-04-27T04:50:05.627Z,29.30
2023-04-27T04:52:37.259Z,29.50
2023-04-27T04:55:09.238Z,30.20
2023-04-27T05:00:42.510Z,29.60
2023-04-27T05:03:13.507Z,29.10
2023-04-27T05:05:44.495Z,30.10
2023-04-27T05:08:17.200Z,29.30
2023-04-27T05:10:52.328Z,28.50
2023-04-27T05:13:27.046Z,27.60
2023-04-27T05:15:57.906Z,26.90
2023-04-27T05:18:28.866Z,27.40
2023-04-27T05:20:59.736Z,24.40
2023-04-27T05:23:30.664Z,20.40
2023-04-27T05:26:01.789Z,16.80
2023-04-27T05:28:35.283Z,13.50
2023-04-27T05:31:06.808Z,9.00
2023-04-27T05:33:37.886Z,6.10
2023-04-27T05:36:09.687Z,2.30
2023-04-27T05:38:41.784Z,1.10
2023-04-27T05:41:12.999Z,1.00
2023-04-27T05:43:46.474Z,1.00
2023-04-27T05:46:17.841Z,1.00
2023-04-27T05:48:48.701Z,1.00
2023-04-27T05:51:19.639Z,1.00
2023-04-27T05:53:53.300Z,1.00
2023-04-27T05:56:24.217Z,1.00
2023-04-27T05:58:57.711Z,1.00
2023-04-27T06:01:28.942Z,1.00
2023-04-27T06:04:01.899Z,1.00
2023-04-27T06:06:35.514Z,1.00
2023-04-27T06:09:06.698Z,1.00
2023-04-27T06:11:37.705Z,1.00
2023-04-27T06:14:11.246Z,1.00
2023-04-27T06:16:42.270Z,1.00
2023-04-27T06:19:13.247Z,1.00
2023-04-27T06:21:44.324Z,1.00
2023-04-27T06:24:15.409Z,1.00
2023-04-27T06:26:46.304Z,1.00
2023-04-27T06:29:19.862Z,1.00
2023-04-27T06:31:53.917Z,1.00
2023-04-27T06:34:27.983Z,1.00
2023-04-27T06:36:59.146Z,1.00
2023-04-27T06:39:30.062Z,1.00
2023-04-27T06:42:01.200Z,1.00
2023-04-27T06:44:34.712Z,1.00
2023-04-27T06:47:05.794Z,1.00
2023-04-27T06:49:36.674Z,1.00
2023-04-27T06:52:08.550Z,1.00
2023-04-27T06:54:39.428Z,1.00
2023-04-27T06:57:11.036Z,1.00
2023-04-27T06:59:44.622Z,1.00
2023-04-27T07:02:15.638Z,1.00
2023-04-27T07:04:46.947Z,1.00
2023-04-27T07:07:18.739Z,1.00
2023-04-27T07:09:49.624Z,1.00
2023-04-27T07:12:20.539Z,1.00
2023-04-27T07:14:53.974Z,1.00
2023-04-27T07:17:24.873Z,1.00
2023-04-27T07:19:55.721Z,1.00
2023-04-27T07:22:26.840Z,1.00
2023-04-27T07:24:57.723Z,1.00
2023-04-27T07:27:28.725Z,1.00
2023-04-27T07:30:02.348Z,1.00
2023-04-27T07:32:33.446Z,1.00
2023-04-27T07:35:04.497Z,1.00
2023-04-27T07:37:35.413Z,1.00
2023-04-27T07:40:11.345Z,1.00
2023-04-27T07:42:42.723Z,1.00
2023-04-27T07:45:17.559Z,1.00
2023-04-27T07:47:48.637Z,1.00
2023-04-27T07:50:24.460Z,1.00
2023-04-27T07:52:56.391Z,1.00
2023-04-27T07:55:28.545Z,1.00
2023-04-27T07:57:59.853Z,1.00
2023-04-27T08:00:33.334Z,1.00
2023-04-27T08:03:04.451Z,1.00
2023-04-27T08:05:36.008Z,1.00
2023-04-27T08:08:07.481Z,1.00
2023-04-27T08:10:38.576Z,1.00
2023-04-27T08:13:10.100Z,1.00
2023-04-27T08:15:43.596Z,1.00
2023-04-27T08:18:14.512Z,1.00
2023-04-27T08:20:48.382Z,1.00
2023-04-27T08:23:19.214Z,1.00
2023-04-27T08:25:50.629Z,1.00
2023-04-27T08:28:23.321Z,1.00
2023-04-27T08:30:56.932Z,1.00
2023-04-27T08:33:28.001Z,1.00
2023-04-27T08:35:58.837Z,1.00
2023-04-27T08:38:29.683Z,1.00
2023-04-27T08:41:07.586Z,1.00
2023-04-27T08:43:49.971Z,1.00
2023-04-27T08:46:28.122Z,1.00
2023-04-27T08:48:59.487Z,1.00
2023-04-27T08:51:32.102Z,1.00
2023-04-27T08:54:03.108Z,1.00
2023-04-27T08:56:34.342Z,1.00
2023-04-27T08:59:05.980Z,1.00
2023-04-27T09:01:39.723Z,1.00
2023-04-27T09:04:11.964Z,1.00
2023-04-27T09:06:42.905Z,1.00
2023-04-27T09:09:24.082Z,1.00
2023-04-27T09:11:54.998Z,1.00
2023-04-27T09:14:27.837Z,1.00
2023-04-27T09:17:02.099Z,1.00
2023-04-27T09:19:33.817Z,1.00
2023-04-27T09:22:11.042Z,1.00
2023-04-27T09:24:42.099Z,1.00
2023-04-27T09:27:21.836Z,1.00
2023-04-27T09:29:52.903Z,1.00
2023-04-27T09:32:26.460Z,1.00
2023-04-27T09:34:57.346Z,1.00
2023-04-27T09:37:28.751Z,1.00
2023-04-27T09:39:59.614Z,1.00
2023-04-27T09:42:30.662Z,1.00
2023-04-27T09:45:02.617Z,1.00
2023-04-27T09:47:37.474Z,1.00
2023-04-27T09:50:09.738Z,1.00
2023-04-27T09:52:40.596Z,1.00
2023-04-27T09:55:16.638Z,1.00
2023-04-27T09:57:56.323Z,1.00
2023-04-27T10:00:39.032Z,1.00
2023-04-27T10:07:14.863Z,1.00
2023-04-27T10:09:48.339Z,1.00
2023-04-27T10:12:22.018Z,1.00
2023-04-27T10:14:57.227Z,1.00
2023-04-27T10:17:32.803Z,1.00
2023-04-27T10:20:05.355Z,1.00
2023-04-27T10:22:46.443Z,1.00
2023-04-27T10:25:22.261Z,1.00
2023-04-27T10:27:55.343Z,1.00
2023-04-27T10:30:27.649Z,1.00
2023-04-27T10:33:00.016Z,1.00
2023-04-27T10:35:38.321Z,1.00
2023-04-27T10:38:13.139Z,1.00
2023-04-27T10:40:44.248Z,1.00
2023-04-27T10:43:17.659Z,1.00
2023-04-27T10:45:49.067Z,1.00
2023-04-27T10:48:19.917Z,1.00
2023-04-27T10:50:53.304Z,1.00
2023-04-27T10:53:27.133Z,1.00
2023-04-27T10:55:59.047Z,1.00
2023-04-27T10:58:41.405Z,1.00
2023-04-27T11:01:27.007Z,1.00
2023-04-27T11:03:59.189Z,1.00
2023-04-27T11:06:32.312Z,1.00
2023-04-27T11:09:06.656Z,1.00
2023-04-27T11:11:37.687Z,1.00
2023-04-27T11:14:08.674Z,1.00
2023-04-27T11:16:39.756Z,1.00
2023-04-27T11:19:10.748Z,1.00
2023-04-27T11:21:41.877Z,1.00
2023-04-27T11:24:15.643Z,1.00
2023-04-27T11:26:53.914Z,1.00
2023-04-27T11:29:24.987Z,1.00
2023-04-27T11:31:55.980Z,1.00
2023-04-27T11:34:28.121Z,1.00
2023-04-27T11:37:17.350Z,1.00
2023-04-27T11:39:51.701Z,1.00
2023-04-27T11:42:24.748Z,1.00
2023-04-27T11:44:56.954Z,1.00
2023-04-27T11:47:29.398Z,1.00
2023-04-27T11:50:02.720Z,1.00
2023-04-27T11:52:34.632Z,1.00
2023-04-27T11:55:09.382Z,1.00
2023-04-27T11:57:41.441Z,1.00
2023-04-27T12:00:14.756Z,1.00
2023-04-27T12:02:46.573Z,1.00
2023-04-27T12:05:18.407Z,1.00
2023-04-27T12:07:49.321Z,1.00
2023-04-27T12:10:22.974Z,1.00
2023-04-27T12:12:53.910Z,1.00
2023-04-27T12:15:24.753Z,1.00
2023-04-27T12:17:55.915Z,1.00
2023-04-27T12:20:26.993Z,1.00
2023-04-27T12:22:57.924Z,1.00
2023-04-27T12:25:33.785Z,1.00
2023-04-27T12:28:04.635Z,1.00
2023-04-27T12:30:35.443Z,1.00
2023-04-27T12:33:11.201Z,1.00
2023-04-27T12:35:44.375Z,1.00
2023-04-27T12:38:15.965Z,1.00
2023-04-27T12:40:49.486Z,1.00
2023-04-27T12:43:20.348Z,1.00
2023-04-27T12:45:51.239Z,1.00
2023-04-27T12:48:36.368Z,1.00
2023-04-27T12:51:08.218Z,1.00
2023-04-27T12:53:39.099Z,1.00
2023-04-27T12:56:12.595Z,1.00
2023-04-27T12:58:43.745Z,1.00
2023-04-27T13:01:15.308Z,1.00
2023-04-27T13:03:47.185Z,1.00
2023-04-27T13:06:18.197Z,1.00
2023-04-27T13:08:49.244Z,1.00
2023-04-27T13:11:22.986Z,1.00
2023-04-27T13:13:55.085Z,1.00
2023-04-27T13:16:26.653Z,1.00
2023-04-27T13:18:58.291Z,1.00
2023-04-27T13:21:29.645Z,1.00
2023-04-27T13:24:00.613Z,1.00
2023-04-27T13:26:34.205Z,1.00
2023-04-27T13:29:05.399Z,1.00
2023-04-27T13:31:36.676Z,1.00
2023-04-27T13:34:07.979Z,1.00
2023-04-27T13:36:38.754Z,1.00
2023-04-27T13:39:09.804Z,1.00
2023-04-27T13:41:43.419Z,1.00
2023-04-27T13:44:14.417Z,1.00
2023-04-27T13:46:45.922Z,1.00
2023-04-27T13:49:16.841Z,1.00
2023-04-27T13:51:47.639Z,1.00
2023-04-27T13:54:18.507Z,1.00
2023-04-27T13:56:52.041Z,1.00
2023-04-27T13:59:22.989Z,1.00
2023-04-27T14:01:53.829Z,1.00
2023-04-27T14:04:24.682Z,1.00
2023-04-27T14:06:55.839Z,1.00
2023-04-27T14:09:27.542Z,1.00
2023-04-27T14:12:01.158Z,1.00
2023-04-27T14:14:31.980Z,1.00
2023-04-27T14:17:02.832Z,1.00
2023-04-27T14:19:33.775Z,1.00
2023-04-27T14:22:04.712Z,1.00
2023-04-27T14:24:35.526Z,1.00
2023-04-27T14:27:09.009Z,1.00
2023-04-27T14:29:39.887Z,1.00
2023-04-27T14:32:11.663Z,1.00
2023-04-27T14:34:42.574Z,1.00
2023-04-27T14:37:13.420Z,1.00
2023-04-27T14:39:45.437Z,1.00
2023-04-27T14:42:18.906Z,1.00
2023-04-27T14:44:49.857Z,1.00
2023-04-27T14:47:20.946Z,1.00
2023-04-27T14:49:51.897Z,1.00
2023-04-27T14:52:22.979Z,1.00
2023-04-27T14:54:53.928Z,1.00
2023-04-27T14:57:27.353Z,1.00
2023-04-27T14:59:59.131Z,1.00
2023-04-27T15:02:31.229Z,1.00
2023-04-27T15:05:04.116Z,1.00
2023-04-27T15:07:37.831Z,1.00
2023-04-27T15:10:09.961Z,1.00
2023-04-27T15:12:43.521Z,1.00
2023-04-27T15:15:15.498Z,1.00
2023-04-27T15:17:46.440Z,1.00
2023-04-27T15:20:17.702Z,1.00
2023-04-27T15:22:48.588Z,1.00
2023-04-27T15:25:19.458Z,1.00
2023-04-27T15:27:53.206Z,1.00
2023-04-27T15:30:26.916Z,1.00
2023-04-27T15:32:57.783Z,1.00
2023-04-27T15:35:28.820Z,1.00
2023-04-27T15:37:59.656Z,1.00
2023-04-27T15:40:30.661Z,1.00
2023-04-27T15:43:05.005Z,1.00
2023-04-27T15:45:35.993Z,1.00
2023-04-27T15:48:07.145Z,1.00
2023-04-27T15:50:38.198Z,1.00
2023-04-27T15:53:09.059Z,1.00
2023-04-27T15:55:39.837Z,1.00
2023-04-27T15:58:13.215Z,1.00
2023-04-27T16:00:44.188Z,1.00
2023-04-27T16:03:15.232Z,1.00
2023-04-27T16:05:46.548Z,1.00
2023-04-27T16:08:18.000Z,1.00
2023-04-27T16:10:48.819Z,1.00
2023-04-27T16:13:23.006Z,1.00
2023-04-27T16:15:53.824Z,1.00
2023-04-27T16:18:24.746Z,1.00
2023-04-27T16:20:55.671Z,1.00
2023-04-27T16:23:26.548Z,1.00
2023-04-27T16:25:57.708Z,1.00
2023-04-27T16:28:32.164Z,1.00
2023-04-27T16:31:03.001Z,1.00
2023-04-27T16:33:33.779Z,1.00
2023-04-27T16:36:04.568Z,1.00
2023-04-27T16:38:37.179Z,1.00
2023-04-27T16:41:09.957Z,1.00
2023-04-27T16:43:43.427Z,1.00
2023-04-27T16:46:14.891Z,1.00
2023-04-27T16:48:45.820Z,1.00
2023-04-27T16:51:16.608Z,1.00
2023-04-27T16:53:47.628Z,1.00
2023-04-27T16:56:18.442Z,1.00
2023-04-27T16:58:51.892Z,1.00
2023-04-27T17:01:23.001Z,1.00
2023-04-27T17:03:54.069Z,1.00
2023-04-27T17:06:25.483Z,1.00
2023-04-27T17:08:59.451Z,1.00
2023-04-27T17:11:30.301Z,1.00
2023-04-27T17:14:03.775Z,1.00
2023-04-27T17:16:34.793Z,1.00
2023-04-27T17:19:06.608Z,1.00
2023-04-27T17:21:37.564Z,1.00
2023-04-27T17:24:10.204Z,1.00
2023-04-27T17:26:41.060Z,1.00
2023-04-27T17:29:15.983Z,1.00
2023-04-27T17:31:47.387Z,1.00
2023-04-27T17:34:18.250Z,1.00
2023-04-27T17:36:49.353Z,1.00
2023-04-27T17:39:22.710Z,1.00
2023-04-27T17:41:53.562Z,1.00
2023-04-27T17:44:27.017Z,1.00
2023-04-27T17:46:57.858Z,1.00
2023-04-27T17:49:28.864Z,1.00
2023-04-27T17:51:59.696Z,1.00
2023-04-27T17:54:30.515Z,1.00
2023-04-27T17:57:02.122Z,1.00
2023-04-27T17:59:35.751Z,1.00
2023-04-27T18:02:06.661Z,1.00
2023-04-27T18:04:37.715Z,1.00
2023-04-27T18:07:08.556Z,1.00
2023-04-27T18:09:39.385Z,1.00
2023-04-27T18:12:11.336Z,1.00
2023-04-27T18:14:44.861Z,1.00
2023-04-27T18:17:16.482Z,1.00
2023-04-27T18:19:48.035Z,1.00
2023-04-27T18:22:22.664Z,1.00
2023-04-27T18:24:53.455Z,1.00
2023-04-27T18:27:24.208Z,1.00
2023-04-27T18:29:58.365Z,1.00
2023-04-27T18:32:29.347Z,1.00
2023-04-27T18:35:00.299Z,1.00
2023-04-27T18:37:31.754Z,1.00
2023-04-27T18:40:02.730Z,1.00
2023-04-27T18:42:33.515Z,1.00
2023-04-27T18:45:07.914Z,1.00
2023-04-27T18:47:38.744Z,1.00
2023-04-27T18:50:11.138Z,1.00
2023-04-27T18:52:42.020Z,1.00
2023-04-27T18:55:14.072Z,1.00
2023-04-27T18:57:44.873Z,1.00
2023-04-27T19:00:18.972Z,1.00
2023-04-27T19:02:52.127Z,1.00
2023-04-27T19:05:23.341Z,1.00
2023-04-27T19:07:54.153Z,1.00
2023-04-27T19:10:24.977Z,1.00
2023-04-27T19:12:56.150Z,1.00
2023-04-27T19:15:29.871Z,1.00
2023-04-27T19:18:06.914Z,1.00
2023-04-27T19:20:44.383Z,1.00
2023-04-27T19:23:16.877Z,1.00
2023-04-27T19:25:48.383Z,1.00
2023-04-27T19:28:20.388Z,1.00
2023-04-27T19:30:54.598Z,1.00
2023-04-27T19:33:25.505Z,1.00
2023-04-27T19:35:58.503Z,1.00
2023-04-27T19:38:29.632Z,1.00
2023-04-27T19:41:00.565Z,1.00
2023-04-27T19:43:31.384Z,1.00
2023-04-27T19:46:04.894Z,1.00
2023-04-27T19:48:36.463Z,1.00
2023-04-27T19:51:11.352Z,1.00
2023-04-27T19:53:42.154Z,1.00
2023-04-27T19:56:12.922Z,1.00
2023-04-27T19:58:43.869Z,1.00
2023-04-27T20:01:17.391Z,1.00
2023-04-27T20:03:48.351Z,1.00
2023-04-27T20:06:20.141Z,1.00
2023-04-27T20:08:51.086Z,1.00
2023-04-27T20:11:24.528Z,1.00
2023-04-27T20:13:55.288Z,1.00
2023-04-27T20:16:38.719Z,1.00
2023-04-27T20:19:12.970Z,1.00
2023-04-27T20:21:47.092Z,1.00
2023-04-27T20:24:18.055Z,1.00
2023-04-27T20:26:49.251Z,1.00
2023-04-27T20:29:20.289Z,1.00
2023-04-27T20:31:51.735Z,1.00
2023-04-27T20:34:25.232Z,1.00
2023-04-27T20:36:57.994Z,1.00
2023-04-27T20:39:29.076Z,1.00
2023-04-27T20:42:00.241Z,1.00
2023-04-27T20:44:32.408Z,1.00
2023-04-27T20:47:03.440Z,1.00
2023-04-27T20:49:36.867Z,1.00
2023-04-27T20:52:08.007Z,1.00
2023-04-27T20:54:39.770Z,1.00
2023-04-27T20:57:14.268Z,1.00
2023-04-27T20:59:45.751Z,1.00
2023-04-27T21:02:16.621Z,1.00
2023-04-27T21:04:50.365Z,1.00
2023-04-27T21:07:21.197Z,1.00
2023-04-27T21:09:51.945Z,1.00
2023-04-27T21:12:23.915Z,1.00
2023-04-27T21:14:54.718Z,1.00
2023-04-27T21:17:26.548Z,1.00
2023-04-27T21:19:59.988Z,1.00
2023-04-27T21:22:30.877Z,1.00
2023-04-27T21:25:01.631Z,1.00
2023-04-27T21:27:32.562Z,1.00
2023-04-27T21:30:03.383Z,1.00
2023-04-27T21:32:34.200Z,1.00
2023-04-27T21:35:08.948Z,1.00
2023-04-27T21:37:39.764Z,1.00
2023-04-27T21:40:11.833Z,1.00
2023-04-27T21:42:42.734Z,1.00
2023-04-27T21:45:13.954Z,1.00
2023-04-27T21:47:44.753Z,1.00
2023-04-27T21:50:19.012Z,1.00
2023-04-27T21:52:49.755Z,1.00
2023-04-27T21:55:21.156Z,1.00
2023-04-27T21:57:52.159Z,1.00
2023-04-27T22:00:23.714Z,1.00
2023-04-27T22:02:54.683Z,1.00
2023-04-27T22:05:49.094Z,1.00
2023-04-27T22:08:20.012Z,1.00
2023-04-27T22:10:51.040Z,1.00
2023-04-27T22:13:22.005Z,1.00
2023-04-27T22:15:52.993Z,1.00
2023-04-27T22:18:23.787Z,1.00
2023-04-27T22:20:58.312Z,1.00
2023-04-27T22:23:29.269Z,1.00
2023-04-27T22:26:00.180Z,1.00
2023-04-27T22:28:30.948Z,1.00
2023-04-27T22:31:03.760Z,1.00
2023-04-27T22:33:34.875Z,1.00
2023-04-27T22:36:09.373Z,1.00
2023-04-27T22:38:40.337Z,1.00
2023-04-27T22:41:11.424Z,1.00
2023-04-27T22:43:42.358Z,1.00
2023-04-27T22:46:13.188Z,1.00
2023-04-27T22:48:46.548Z,1.00
2023-04-27T22:51:19.948Z,1.00
2023-04-27T22:53:51.654Z,1.00
2023-04-27T22:56:22.614Z,1.00
2023-04-27T22:58:53.448Z,1.00
2023-04-27T23:01:24.336Z,1.00
2023-04-27T23:03:55.608Z,1.00
2023-04-27T23:06:30.558Z,1.00
2023-04-27T23:09:01.776Z,1.00
2023-04-27T23:11:32.552Z,1.00
2023-04-27T23:14:03.377Z,1.00
2023-04-27T23:16:35.857Z,1.00
2023-04-27T23:19:06.893Z,1.00
2023-04-27T23:21:40.245Z,1.00
2023-04-27T23:24:14.241Z,1.00
2023-04-27T23:26:45.308Z,1.00
2023-04-27T23:29:16.092Z,1.00
2023-04-27T23:31:50.045Z,1.00
2023-04-27T23:34:20.848Z,1.00
2023-04-27T23:36:54.424Z,1.00
2023-04-27T23:39:25.226Z,1.00
2023-04-27T23:41:56.051Z,1.00
2023-04-27T23:44:27.678Z,1.00
2023-04-27T23:46:58.717Z,1.00
2023-04-27T23:49:29.473Z,1.00
2023-04-27T23:52:02.971Z,1.00
2023-04-27T23:54:34.322Z,1.00
2023-04-27T23:57:05.537Z,1.00
2023-04-27T23:59:37.397Z,1.00
